Home > Products > Valid Products > TAF

000
FTUS43 KUNR 210900 AAA
TAFGCC
TAF AMD
KGCC 210944Z 2110/2206 22005KT P6SM SCT110=



000
FTUS43 KUNR 210500
TAFRAP
TAF
KRAP 210520Z 2106/2206 35009KT P6SM BKN100
     FM211800 12008KT P6SM SCT050 BKN100=



000
FTUS43 KUNR 210500
TAFGCC
TAF
KGCC 210520Z 2106/2206 VRB04KT P6SM VCTS BKN100CB
     FM211000 18008KT P6SM BKN050=



000
FTUS43 KUNR 202300
TAFGCC
TAF
KGCC 202320Z 2100/2124 VRB04KT P6SM BKN100=



000
FTUS43 KUNR 202300
TAFRAP
TAF
KRAP 202320Z 2100/2124 35009KT P6SM BKN100=



000
FTUS43 KUNR 201700
TAFGCC
TAF
KGCC 201720Z 2018/2118 34012G22KT P6SM SCT250
     FM210200 VRB05KT P6SM BKN250=



000
FTUS43 KUNR 201700
TAFRAP
TAF
KRAP 201720Z 2018/2118 VRB05KT P6SM BKN120
     FM202200 33009KT P6SM BKN250=



000
FTUS43 KUNR 201600 AAA
TAFRAP
TAF AMD
KRAP 201605Z 2016/2112 VRB05KT P6SM BKN120
     FM202200 33009KT P6SM BKN250=



000
FTUS43 KUNR 201600 AAA
TAFGCC
TAF AMD
KGCC 201602Z 2016/2112 34011G22KT P6SM SCT250
     FM210200 VRB05KT P6SM BKN250=



000
FTUS43 KUNR 201100
TAFGCC
TAF
KGCC 201128Z 2012/2112 22011KT P6SM BKN100
     FM201600 34010KT P6SM BKN080=



000
FTUS43 KUNR 201100
TAFRAP
TAF
KRAP 201128Z 2012/2112 15010KT P6SM BKN120
      TEMPO 2012/2015 -SHRA BKN080
     FM201900 34014KT P6SM BKN080=



000
FTUS43 KUNR 200600 AAA
TAFGCC
TAF AMD
KGCC 200658Z 2007/2106 23016G26KT P6SM SCT080 BKN120
     FM200900 22011KT P6SM SCT050 BKN100
      TEMPO 2010/2012 -TSRA BKN050CB
     FM201700 34009KT P6SM SCT050 BKN100=



000
FTUS43 KUNR 200500
TAFRAP
TAF
KRAP 200520Z 2006/2106 15006KT P6SM SCT050 BKN100
      TEMPO 2011/2013 -TSRA BKN050CB
     FM201900 34014KT P6SM BKN050=



000
FTUS43 KUNR 200500
TAFGCC
TAF
KGCC 200520Z 2006/2106 22011KT P6SM SCT050 BKN150
      TEMPO 2010/2012 -TSRA BKN050CB
     FM201700 34009KT P6SM SCT050 BKN100=



000
FTUS43 KUNR 200400 AAA
TAFRAP
TAF AMD
KRAP 200401Z 2004/2024 15006KT P6SM SCT050 BKN100
      TEMPO 2009/2013 -TSRA BKN050CB
     FM201900 34014KT P6SM BKN050=



000
FTUS43 KUNR 200400 AAA
TAFGCC
TAF AMD
KGCC 200401Z 2004/2024 24010KT P6SM SCT050 BKN150
      TEMPO 2008/2012 -TSRA BKN050CB
     FM201700 34009KT P6SM SCT050 BKN100=



000
FTUS43 KUNR 192300
TAFGCC
TAF
KGCC 192322Z 2000/2024 24008KT P6SM SCT050 BKN150
      TEMPO 2003/2007 -TSRA BKN050CB
     FM201700 34009KT P6SM SCT050 BKN100=



000
FTUS43 KUNR 192300
TAFRAP
TAF
KRAP 192322Z 2000/2024 VRB05KT P6SM BKN150
     FM200300 12005KT P6SM SCT050 BKN100
      TEMPO 2004/2008 -TSRA BKN050CB
     FM201900 34014KT P6SM BKN050=



000
FTUS43 KUNR 191900 AAA
TAFRAP
TAF AMD
KRAP 191940Z 1920/2018 14010KT P6SM SCT080 BKN150
     FM200300 12005KT P6SM SCT050 BKN100=



000
FTUS43 KUNR 191700
TAFGCC
TAF
KGCC 191720Z 1918/2018 15011KT P6SM SCT200
     FM200000 15006KT P6SM SCT050 BKN100
     FM200800 24007KT P6SM SCT050 BKN100=



000
FTUS43 KUNR 191700
TAFRAP
TAF
KRAP 191720Z 1918/2018 16010KT P6SM SCT200
     FM200300 12005KT P6SM SCT050 BKN100=



000
FTUS43 KUNR 191100
TAFRAP
TAF
KRAP 191130Z 1912/2012 VRB04KT P6SM SCT120
     FM191500 16010KT P6SM SCT120
     FM192100 16014KT P6SM SCT050 BKN100=



000
FTUS43 KUNR 191100
TAFGCC
TAF
KGCC 191130Z 1912/2012 16012KT P6SM SCT100
     FM192000 16012KT P6SM SCT050 BKN100=



000
FTUS43 KUNR 190500
TAFRAP
TAF
KRAP 190520Z 1906/2006 VRB04KT P6SM BKN150
     FM191500 16010KT P6SM SCT100
     FM192100 16014KT P6SM SCT050 BKN100=



000
FTUS43 KUNR 190500
TAFGCC
TAF
KGCC 190520Z 1906/2006 VRB04KT P6SM BKN150
     FM190900 16010KT P6SM SCT100
     FM192000 16012KT P6SM SCT050 BKN100
      TEMPO 1922/2002 -TSRA BKN050CB=



000
FTUS43 KUNR 182300
TAFGCC
TAF
KGCC 182320Z 1900/1924 35009KT P6SM BKN200
     FM190100 VRB04KT P6SM SCT100
     FM190700 17012KT P6SM SCT100=



000
FTUS43 KUNR 182300
TAFRAP
TAF
KRAP 182320Z 1900/1924 35015KT P6SM BKN200
     FM190300 VRB03KT P6SM SCT100
     FM191500 17012KT P6SM SCT050=



000
FTUS43 KUNR 181700
TAFGCC
TAF
KGCC 181720Z 1818/1918 33010KT P6SM SCT200
     FM190100 VRB04KT P6SM FEW120
     FM190700 17010KT P6SM FEW100=



000
FTUS43 KUNR 181700
TAFRAP
TAF
KRAP 181720Z 1818/1918 34018G28KT P6SM SCT200
     FM182300 34011KT P6SM SCT150
     FM190300 VRB03KT P6SM SCT100=



000
FTUS43 KUNR 181100
TAFGCC
TAF
KGCC 181128Z 1812/1912 30006KT P6SM SCT120
     FM181400 32012KT P6SM SCT120
     FM190100 17007KT P6SM SCT120=



000
FTUS43 KUNR 181100
TAFRAP
TAF
KRAP 181128Z 1812/1912 31009KT P6SM SCT120
     FM181500 34016G26KT P6SM SCT120
     FM190100 35008KT P6SM SCT120=



    US Dept of Commerce
    National Oceanic and Atmospheric Administration
    National Weather Service
    1325 East West Highway
    Silver Spring, MD 20910
    Page Author: NWS Internet Services Team
Disclaimer
Information Quality
Credits
Glossary
Privacy Policy
Freedom of Information Act (FOIA)
About Us
Career Opportunities